sensor_id;sensor_type;location;lat;lon;timestamp;temperature;humidity
15103;DHT22;7652;53.584;9.998;2023-04-24T00:02:07;13.00;99.90
15103;DHT22;7652;53.584;9.998;2023-04-24T00:05:13;12.90;99.90
15103;DHT22;7652;53.584;9.998;2023-04-24T00:08:18;12.90;99.90
15103;DHT22;7652;53.584;9.998;2023-04-24T00:11:21;12.90;99.90
15103;DHT22;7652;53.584;9.998;2023-04-24T00:14:24;13.00;99.90
15103;DHT22;7652;53.584;9.998;2023-04-24T00:17:27;13.00;99.90
15103;DHT22;7652;53.584;9.998;2023-04-24T00:20:30;13.00;99.90
15103;DHT22;7652;53.584;9.998;2023-04-24T00:23:35;12.90;99.90
15103;DHT22;7652;53.584;9.998;2023-04-24T00:26:38;12.80;99.90
15103;DHT22;7652;53.584;9.998;2023-04-24T00:29:41;12.90;99.90
15103;DHT22;7652;53.584;9.998;2023-04-24T00:32:45;12.90;99.90
15103;DHT22;7652;53.584;9.998;2023-04-24T00:35:48;12.90;99.90
15103;DHT22;7652;53.584;9.998;2023-04-24T00:38:52;12.90;99.90
15103;DHT22;7652;53.584;9.998;2023-04-24T00:41:56;13.00;99.90
15103;DHT22;7652;53.584;9.998;2023-04-24T00:45:00;12.90;99.90
15103;DHT22;7652;53.584;9.998;2023-04-24T00:48:05;12.90;99.90
15103;DHT22;7652;53.584;9.998;2023-04-24T00:51:09;13.00;99.90
15103;DHT22;7652;53.584;9.998;2023-04-24T00:54:13;13.00;99.90
15103;DHT22;7652;53.584;9.998;2023-04-24T00:57:16;13.00;99.90
15103;DHT22;7652;53.584;9.998;2023-04-24T01:00:21;12.90;99.90
15103;DHT22;7652;53.584;9.998;2023-04-24T01:03:28;12.90;99.90
15103;DHT22;7652;53.584;9.998;2023-04-24T01:06:32;12.80;99.90
15103;DHT22;7652;53.584;9.998;2023-04-24T01:09:37;12.80;99.90
15103;DHT22;7652;53.584;9.998;2023-04-24T01:12:41;12.90;99.90
15103;DHT22;7652;53.584;9.998;2023-04-24T01:15:44;13.00;99.90
15103;DHT22;7652;53.584;9.998;2023-04-24T01:18:47;13.00;99.90
15103;DHT22;7652;53.584;9.998;2023-04-24T01:21:51;12.90;99.90
15103;DHT22;7652;53.584;9.998;2023-04-24T01:24:57;12.90;99.90
15103;DHT22;7652;53.584;9.998;2023-04-24T01:28:00;12.80;99.90
15103;DHT22;7652;53.584;9.998;2023-04-24T01:31:04;12.70;99.90
15103;DHT22;7652;53.584;9.998;2023-04-24T01:34:07;12.70;99.90
15103;DHT22;7652;53.584;9.998;2023-04-24T01:37:10;12.80;99.90
15103;DHT22;7652;53.584;9.998;2023-04-24T01:40:14;12.80;99.90
15103;DHT22;7652;53.584;9.998;2023-04-24T01:43:17;12.90;99.90
15103;DHT22;7652;53.584;9.998;2023-04-24T01:46:21;12.90;99.90
15103;DHT22;7652;53.584;9.998;2023-04-24T01:49:24;12.80;99.90
15103;DHT22;7652;53.584;9.998;2023-04-24T01:52:27;12.90;99.90
15103;DHT22;7652;53.584;9.998;2023-04-24T01:55:34;12.90;99.90
15103;DHT22;7652;53.584;9.998;2023-04-24T01:58:37;12.80;99.90
15103;DHT22;7652;53.584;9.998;2023-04-24T02:01:40;12.80;99.90
15103;DHT22;7652;53.584;9.998;2023-04-24T02:04:43;12.80;99.90
15103;DHT22;7652;53.584;9.998;2023-04-24T02:07:46;12.80;99.90
15103;DHT22;7652;53.584;9.998;2023-04-24T02:10:51;12.80;99.90
15103;DHT22;7652;53.584;9.998;2023-04-24T02:13:54;12.70;99.90
15103;DHT22;7652;53.584;9.998;2023-04-24T02:16:57;12.60;99.90
15103;DHT22;7652;53.584;9.998;2023-04-24T02:20:00;12.60;99.90
15103;DHT22;7652;53.584;9.998;2023-04-24T02:23:03;12.60;99.90
15103;DHT22;7652;53.584;9.998;2023-04-24T02:26:08;12.60;99.90
15103;DHT22;7652;53.584;9.998;2023-04-24T02:29:11;12.60;99.90
15103;DHT22;7652;53.584;9.998;2023-04-24T02:32:14;12.60;99.90
15103;DHT22;7652;53.584;9.998;2023-04-24T02:35:17;12.50;99.90
15103;DHT22;7652;53.584;9.998;2023-04-24T02:38:20;12.50;99.90
15103;DHT22;7652;53.584;9.998;2023-04-24T02:41:25;12.40;99.90
15103;DHT22;7652;53.584;9.998;2023-04-24T02:44:32;12.40;99.90
15103;DHT22;7652;53.584;9.998;2023-04-24T02:47:35;12.30;99.90
15103;DHT22;7652;53.584;9.998;2023-04-24T02:50:39;12.30;99.90
15103;DHT22;7652;53.584;9.998;2023-04-24T02:53:42;12.20;99.90
15103;DHT22;7652;53.584;9.998;2023-04-24T02:56:46;12.30;99.90
15103;DHT22;7652;53.584;9.998;2023-04-24T02:59:49;12.30;99.90
15103;DHT22;7652;53.584;9.998;2023-04-24T03:02:52;12.20;99.90
15103;DHT22;7652;53.584;9.998;2023-04-24T03:05:55;12.20;99.90
15103;DHT22;7652;53.584;9.998;2023-04-24T03:08:58;12.10;99.90
15103;DHT22;7652;53.584;9.998;2023-04-24T03:12:03;12.10;99.90
15103;DHT22;7652;53.584;9.998;2023-04-24T03:15:07;12.10;99.90
15103;DHT22;7652;53.584;9.998;2023-04-24T03:18:10;12.00;99.90
15103;DHT22;7652;53.584;9.998;2023-04-24T03:21:14;12.00;99.90
15103;DHT22;7652;53.584;9.998;2023-04-24T03:24:17;12.10;99.90
15103;DHT22;7652;53.584;9.998;2023-04-24T03:27:21;12.00;99.90
15103;DHT22;7652;53.584;9.998;2023-04-24T03:30:25;12.00;99.90
15103;DHT22;7652;53.584;9.998;2023-04-24T03:33:28;11.90;99.90
15103;DHT22;7652;53.584;9.998;2023-04-24T03:36:31;11.90;99.90
15103;DHT22;7652;53.584;9.998;2023-04-24T03:39:34;11.90;99.90
15103;DHT22;7652;53.584;9.998;2023-04-24T03:42:38;11.80;99.90
15103;DHT22;7652;53.584;9.998;2023-04-24T03:45:41;11.80;99.90
15103;DHT22;7652;53.584;9.998;2023-04-24T03:48:44;11.80;99.90
15103;DHT22;7652;53.584;9.998;2023-04-24T03:51:47;11.80;99.90
15103;DHT22;7652;53.584;9.998;2023-04-24T03:54:50;11.70;99.90
15103;DHT22;7652;53.584;9.998;2023-04-24T03:57:54;11.70;99.90
15103;DHT22;7652;53.584;9.998;2023-04-24T04:00:57;11.70;99.90
15103;DHT22;7652;53.584;9.998;2023-04-24T04:04:00;11.60;99.90
15103;DHT22;7652;53.584;9.998;2023-04-24T04:07:04;11.60;99.90
15103;DHT22;7652;53.584;9.998;2023-04-24T04:10:08;11.70;99.90
15103;DHT22;7652;53.584;9.998;2023-04-24T04:13:12;11.70;99.90
15103;DHT22;7652;53.584;9.998;2023-04-24T04:16:16;11.70;99.90
15103;DHT22;7652;53.584;9.998;2023-04-24T04:19:21;11.70;99.90
15103;DHT22;7652;53.584;9.998;2023-04-24T04:22:24;11.70;99.90
15103;DHT22;7652;53.584;9.998;2023-04-24T04:25:27;11.80;99.90
15103;DHT22;7652;53.584;9.998;2023-04-24T04:28:34;11.80;99.90
15103;DHT22;7652;53.584;9.998;2023-04-24T04:31:37;11.70;99.90
15103;DHT22;7652;53.584;9.998;2023-04-24T04:34:42;11.80;99.90
15103;DHT22;7652;53.584;9.998;2023-04-24T04:37:47;11.80;99.90
15103;DHT22;7652;53.584;9.998;2023-04-24T04:40:50;11.70;99.90
15103;DHT22;7652;53.584;9.998;2023-04-24T04:43:54;11.70;99.90
15103;DHT22;7652;53.584;9.998;2023-04-24T04:47:00;11.70;99.90
15103;DHT22;7652;53.584;9.998;2023-04-24T04:50:06;11.70;99.90
15103;DHT22;7652;53.584;9.998;2023-04-24T04:53:09;11.70;99.90
15103;DHT22;7652;53.584;9.998;2023-04-24T04:56:12;11.80;99.90
15103;DHT22;7652;53.584;9.998;2023-04-24T04:59:16;11.90;99.90
15103;DHT22;7652;53.584;9.998;2023-04-24T05:02:19;12.00;99.90
15103;DHT22;7652;53.584;9.998;2023-04-24T05:05:23;12.10;99.90
15103;DHT22;7652;53.584;9.998;2023-04-24T05:08:25;12.10;99.90
15103;DHT22;7652;53.584;9.998;2023-04-24T05:11:29;12.10;99.90
15103;DHT22;7652;53.584;9.998;2023-04-24T05:14:33;12.10;99.90
15103;DHT22;7652;53.584;9.998;2023-04-24T05:17:36;12.10;99.90
15103;DHT22;7652;53.584;9.998;2023-04-24T05:20:41;12.10;99.90
15103;DHT22;7652;53.584;9.998;2023-04-24T05:23:45;12.10;99.90
15103;DHT22;7652;53.584;9.998;2023-04-24T05:26:48;12.20;99.90
15103;DHT22;7652;53.584;9.998;2023-04-24T05:29:52;12.50;99.90
15103;DHT22;7652;53.584;9.998;2023-04-24T05:32:55;12.90;99.90
15103;DHT22;7652;53.584;9.998;2023-04-24T05:36:00;13.20;99.90
15103;DHT22;7652;53.584;9.998;2023-04-24T05:39:03;13.60;99.90
15103;DHT22;7652;53.584;9.998;2023-04-24T05:42:09;13.90;99.90
15103;DHT22;7652;53.584;9.998;2023-04-24T05:45:13;14.10;99.90
15103;DHT22;7652;53.584;9.998;2023-04-24T05:48:18;14.30;99.90
15103;DHT22;7652;53.584;9.998;2023-04-24T05:51:21;14.60;99.90
15103;DHT22;7652;53.584;9.998;2023-04-24T05:54:24;14.80;99.90
15103;DHT22;7652;53.584;9.998;2023-04-24T05:57:27;15.00;99.90
15103;DHT22;7652;53.584;9.998;2023-04-24T06:00:31;15.20;99.90
15103;DHT22;7652;53.584;9.998;2023-04-24T06:03:35;15.30;99.90
15103;DHT22;7652;53.584;9.998;2023-04-24T06:06:38;15.20;99.90
15103;DHT22;7652;53.584;9.998;2023-04-24T06:09:42;15.00;99.90
15103;DHT22;7652;53.584;9.998;2023-04-24T06:12:45;14.80;99.90
15103;DHT22;7652;53.584;9.998;2023-04-24T06:15:49;14.80;99.90
15103;DHT22;7652;53.584;9.998;2023-04-24T06:18:52;15.00;99.90
15103;DHT22;7652;53.584;9.998;2023-04-24T06:21:55;15.20;99.90
15103;DHT22;7652;53.584;9.998;2023-04-24T06:24:59;15.50;99.90
15103;DHT22;7652;53.584;9.998;2023-04-24T06:28:02;15.50;99.90
15103;DHT22;7652;53.584;9.998;2023-04-24T06:31:06;15.50;99.90
15103;DHT22;7652;53.584;9.998;2023-04-24T06:34:09;15.20;99.90
15103;DHT22;7652;53.584;9.998;2023-04-24T06:37:12;15.30;99.90
15103;DHT22;7652;53.584;9.998;2023-04-24T06:40:16;15.10;99.90
15103;DHT22;7652;53.584;9.998;2023-04-24T06:43:20;15.10;99.90
15103;DHT22;7652;53.584;9.998;2023-04-24T06:46:24;15.20;99.90
15103;DHT22;7652;53.584;9.998;2023-04-24T06:49:28;15.20;99.90
15103;DHT22;7652;53.584;9.998;2023-04-24T06:52:31;15.20;99.90
15103;DHT22;7652;53.584;9.998;2023-04-24T06:55:35;15.20;99.90
15103;DHT22;7652;53.584;9.998;2023-04-24T06:58:38;15.20;99.90
15103;DHT22;7652;53.584;9.998;2023-04-24T07:01:43;15.50;99.90
15103;DHT22;7652;53.584;9.998;2023-04-24T07:04:47;15.70;99.90
15103;DHT22;7652;53.584;9.998;2023-04-24T07:07:50;15.80;99.90
15103;DHT22;7652;53.584;9.998;2023-04-24T07:10:53;15.80;99.90
15103;DHT22;7652;53.584;9.998;2023-04-24T07:13:57;16.00;99.90
15103;DHT22;7652;53.584;9.998;2023-04-24T07:17:02;16.10;99.90
15103;DHT22;7652;53.584;9.998;2023-04-24T07:20:06;16.20;99.90
15103;DHT22;7652;53.584;9.998;2023-04-24T07:23:11;16.10;99.90
15103;DHT22;7652;53.584;9.998;2023-04-24T07:26:14;16.00;99.90
15103;DHT22;7652;53.584;9.998;2023-04-24T07:29:17;16.20;99.90
15103;DHT22;7652;53.584;9.998;2023-04-24T07:32:22;16.00;99.90
15103;DHT22;7652;53.584;9.998;2023-04-24T07:35:26;16.20;99.90
15103;DHT22;7652;53.584;9.998;2023-04-24T07:38:29;16.40;99.90
15103;DHT22;7652;53.584;9.998;2023-04-24T07:41:32;16.20;99.90
15103;DHT22;7652;53.584;9.998;2023-04-24T07:44:35;16.00;99.90
15103;DHT22;7652;53.584;9.998;2023-04-24T07:47:41;15.90;99.90
15103;DHT22;7652;53.584;9.998;2023-04-24T07:50:45;15.70;99.90
15103;DHT22;7652;53.584;9.998;2023-04-24T07:53:48;15.80;99.90
15103;DHT22;7652;53.584;9.998;2023-04-24T07:56:51;16.40;99.90
15103;DHT22;7652;53.584;9.998;2023-04-24T07:59:55;17.00;99.90
15103;DHT22;7652;53.584;9.998;2023-04-24T08:02:59;17.00;99.90
15103;DHT22;7652;53.584;9.998;2023-04-24T08:06:02;16.80;99.90
15103;DHT22;7652;53.584;9.998;2023-04-24T08:09:06;16.90;99.90
15103;DHT22;7652;53.584;9.998;2023-04-24T08:12:09;17.30;99.90
15103;DHT22;7652;53.584;9.998;2023-04-24T08:15:12;17.00;99.90
15103;DHT22;7652;53.584;9.998;2023-04-24T08:18:16;16.80;99.90
15103;DHT22;7652;53.584;9.998;2023-04-24T08:21:19;16.50;99.90
15103;DHT22;7652;53.584;9.998;2023-04-24T08:24:23;16.40;99.90
15103;DHT22;7652;53.584;9.998;2023-04-24T08:27:26;16.40;99.90
15103;DHT22;7652;53.584;9.998;2023-04-24T08:30:29;16.20;99.90
15103;DHT22;7652;53.584;9.998;2023-04-24T08:33:34;16.10;99.90
15103;DHT22;7652;53.584;9.998;2023-04-24T08:36:37;16.00;99.90
15103;DHT22;7652;53.584;9.998;2023-04-24T08:39:48;15.90;99.90
15103;DHT22;7652;53.584;9.998;2023-04-24T08:42:54;15.70;99.90
15103;DHT22;7652;53.584;9.998;2023-04-24T08:45:57;15.50;99.90
15103;DHT22;7652;53.584;9.998;2023-04-24T08:49:03;15.40;99.90
15103;DHT22;7652;53.584;9.998;2023-04-24T08:52:07;15.20;99.90
15103;DHT22;7652;53.584;9.998;2023-04-24T08:55:10;15.00;99.90
15103;DHT22;7652;53.584;9.998;2023-04-24T08:58:15;14.80;99.90
15103;DHT22;7652;53.584;9.998;2023-04-24T09:01:20;14.60;99.90
15103;DHT22;7652;53.584;9.998;2023-04-24T09:04:25;14.50;99.90
15103;DHT22;7652;53.584;9.998;2023-04-24T09:07:30;14.60;99.90
15103;DHT22;7652;53.584;9.998;2023-04-24T09:10:35;14.90;99.90
15103;DHT22;7652;53.584;9.998;2023-04-24T09:13:38;15.10;99.90
15103;DHT22;7652;53.584;9.998;2023-04-24T09:16:42;15.20;99.90
15103;DHT22;7652;53.584;9.998;2023-04-24T09:19:46;15.30;99.90
15103;DHT22;7652;53.584;9.998;2023-04-24T09:22:53;15.40;99.90
15103;DHT22;7652;53.584;9.998;2023-04-24T09:25:57;15.20;99.90
15103;DHT22;7652;53.584;9.998;2023-04-24T09:29:03;15.10;99.90
15103;DHT22;7652;53.584;9.998;2023-04-24T09:32:18;15.10;99.90
15103;DHT22;7652;53.584;9.998;2023-04-24T09:35:24;15.00;99.90
15103;DHT22;7652;53.584;9.998;2023-04-24T09:38:31;14.90;99.90
15103;DHT22;7652;53.584;9.998;2023-04-24T09:41:35;14.90;99.90
15103;DHT22;7652;53.584;9.998;2023-04-24T09:44:38;14.80;99.90
15103;DHT22;7652;53.584;9.998;2023-04-24T09:47:41;14.90;99.90
15103;DHT22;7652;53.584;9.998;2023-04-24T09:50:47;14.80;99.90
15103;DHT22;7652;53.584;9.998;2023-04-24T09:53:52;14.70;99.90
15103;DHT22;7652;53.584;9.998;2023-04-24T09:56:56;14.60;99.90
15103;DHT22;7652;53.584;9.998;2023-04-24T09:59:59;14.40;99.90
15103;DHT22;7652;53.584;9.998;2023-04-24T10:03:04;14.40;99.90
15103;DHT22;7652;53.584;9.998;2023-04-24T10:06:12;14.50;99.90
15103;DHT22;7652;53.584;9.998;2023-04-24T10:09:16;14.50;99.90
15103;DHT22;7652;53.584;9.998;2023-04-24T10:12:19;14.60;99.90
15103;DHT22;7652;53.584;9.998;2023-04-24T10:15:22;14.60;99.90
15103;DHT22;7652;53.584;9.998;2023-04-24T10:18:25;14.50;99.90
15103;DHT22;7652;53.584;9.998;2023-04-24T10:21:30;14.40;99.90
15103;DHT22;7652;53.584;9.998;2023-04-24T10:24:34;14.40;99.90
15103;DHT22;7652;53.584;9.998;2023-04-24T10:27:39;14.50;99.90
15103;DHT22;7652;53.584;9.998;2023-04-24T10:30:43;14.70;99.90
15103;DHT22;7652;53.584;9.998;2023-04-24T10:33:46;14.80;99.90
15103;DHT22;7652;53.584;9.998;2023-04-24T10:36:52;14.70;99.90
15103;DHT22;7652;53.584;9.998;2023-04-24T10:39:58;14.80;99.90
15103;DHT22;7652;53.584;9.998;2023-04-24T10:43:03;14.60;99.90
15103;DHT22;7652;53.584;9.998;2023-04-24T10:46:08;14.50;99.90
15103;DHT22;7652;53.584;9.998;2023-04-24T10:49:12;14.60;99.90
15103;DHT22;7652;53.584;9.998;2023-04-24T10:52:16;14.80;99.90
15103;DHT22;7652;53.584;9.998;2023-04-24T10:55:41;14.70;99.90
15103;DHT22;7652;53.584;9.998;2023-04-24T10:58:49;14.70;99.90
15103;DHT22;7652;53.584;9.998;2023-04-24T11:01:54;14.60;99.90
15103;DHT22;7652;53.584;9.998;2023-04-24T11:04:58;14.60;99.90
15103;DHT22;7652;53.584;9.998;2023-04-24T11:08:14;14.60;99.90
15103;DHT22;7652;53.584;9.998;2023-04-24T11:11:18;14.70;99.90
15103;DHT22;7652;53.584;9.998;2023-04-24T11:14:22;14.90;99.90
15103;DHT22;7652;53.584;9.998;2023-04-24T11:17:33;14.90;99.90
15103;DHT22;7652;53.584;9.998;2023-04-24T11:20:36;15.00;99.90
15103;DHT22;7652;53.584;9.998;2023-04-24T11:23:46;15.10;99.90
15103;DHT22;7652;53.584;9.998;2023-04-24T11:26:51;15.30;99.90
15103;DHT22;7652;53.584;9.998;2023-04-24T11:29:59;15.70;99.90
15103;DHT22;7652;53.584;9.998;2023-04-24T11:33:04;15.90;99.90
15103;DHT22;7652;53.584;9.998;2023-04-24T11:36:08;15.80;99.90
15103;DHT22;7652;53.584;9.998;2023-04-24T11:39:13;15.90;99.90
15103;DHT22;7652;53.584;9.998;2023-04-24T11:42:16;15.90;99.90
15103;DHT22;7652;53.584;9.998;2023-04-24T11:45:22;16.00;99.90
15103;DHT22;7652;53.584;9.998;2023-04-24T11:48:25;15.80;99.90
15103;DHT22;7652;53.584;9.998;2023-04-24T11:51:28;15.60;99.90
15103;DHT22;7652;53.584;9.998;2023-04-24T11:54:48;15.50;99.90
15103;DHT22;7652;53.584;9.998;2023-04-24T11:57:54;15.40;99.90
15103;DHT22;7652;53.584;9.998;2023-04-24T12:00:58;15.40;99.90
15103;DHT22;7652;53.584;9.998;2023-04-24T12:04:02;15.30;99.90
15103;DHT22;7652;53.584;9.998;2023-04-24T12:07:06;15.20;99.90
15103;DHT22;7652;53.584;9.998;2023-04-24T12:10:11;15.20;99.90
15103;DHT22;7652;53.584;9.998;2023-04-24T12:13:14;15.20;99.90
15103;DHT22;7652;53.584;9.998;2023-04-24T12:16:17;15.30;99.90
15103;DHT22;7652;53.584;9.998;2023-04-24T12:19:21;15.40;99.90
15103;DHT22;7652;53.584;9.998;2023-04-24T12:22:24;15.30;99.90
15103;DHT22;7652;53.584;9.998;2023-04-24T12:25:30;15.30;99.90
15103;DHT22;7652;53.584;9.998;2023-04-24T12:28:37;15.10;99.90
15103;DHT22;7652;53.584;9.998;2023-04-24T12:31:40;15.10;99.90
15103;DHT22;7652;53.584;9.998;2023-04-24T12:34:43;15.20;99.90
15103;DHT22;7652;53.584;9.998;2023-04-24T12:37:46;15.20;99.90
15103;DHT22;7652;53.584;9.998;2023-04-24T12:41:02;15.20;99.90
15103;DHT22;7652;53.584;9.998;2023-04-24T12:44:10;15.10;99.90
15103;DHT22;7652;53.584;9.998;2023-04-24T12:47:13;15.10;99.90
15103;DHT22;7652;53.584;9.998;2023-04-24T12:50:17;15.00;99.90
15103;DHT22;7652;53.584;9.998;2023-04-24T12:53:20;14.80;99.90
15103;DHT22;7652;53.584;9.998;2023-04-24T12:56:24;14.70;99.90
15103;DHT22;7652;53.584;9.998;2023-04-24T12:59:27;14.60;99.90
15103;DHT22;7652;53.584;9.998;2023-04-24T13:02:31;14.60;99.90
15103;DHT22;7652;53.584;9.998;2023-04-24T13:05:34;14.60;99.90
15103;DHT22;7652;53.584;9.998;2023-04-24T13:08:37;14.40;99.90
15103;DHT22;7652;53.584;9.998;2023-04-24T13:11:41;14.20;99.90
15103;DHT22;7652;53.584;9.998;2023-04-24T13:14:44;14.00;99.90
15103;DHT22;7652;53.584;9.998;2023-04-24T13:17:48;14.00;99.90
15103;DHT22;7652;53.584;9.998;2023-04-24T13:20:51;13.90;99.90
15103;DHT22;7652;53.584;9.998;2023-04-24T13:23:54;13.90;99.90
15103;DHT22;7652;53.584;9.998;2023-04-24T13:26:58;13.80;99.90
15103;DHT22;7652;53.584;9.998;2023-04-24T13:30:03;13.70;99.90
15103;DHT22;7652;53.584;9.998;2023-04-24T13:33:06;13.70;99.90
15103;DHT22;7652;53.584;9.998;2023-04-24T13:36:09;13.70;99.90
15103;DHT22;7652;53.584;9.998;2023-04-24T13:39:12;13.70;99.90
15103;DHT22;7652;53.584;9.998;2023-04-24T13:42:17;13.70;99.90
15103;DHT22;7652;53.584;9.998;2023-04-24T13:45:20;13.70;99.90
15103;DHT22;7652;53.584;9.998;2023-04-24T13:48:26;13.70;99.90
15103;DHT22;7652;53.584;9.998;2023-04-24T13:51:29;13.80;99.90
15103;DHT22;7652;53.584;9.998;2023-04-24T13:54:32;13.80;99.90
15103;DHT22;7652;53.584;9.998;2023-04-24T13:57:37;13.80;99.90
15103;DHT22;7652;53.584;9.998;2023-04-24T14:00:40;13.80;99.90
15103;DHT22;7652;53.584;9.998;2023-04-24T14:03:43;13.80;99.90
15103;DHT22;7652;53.584;9.998;2023-04-24T14:06:46;13.90;99.90
15103;DHT22;7652;53.584;9.998;2023-04-24T14:09:49;13.90;99.90
15103;DHT22;7652;53.584;9.998;2023-04-24T14:12:54;13.90;99.90
15103;DHT22;7652;53.584;9.998;2023-04-24T14:15:58;13.80;99.90
15103;DHT22;7652;53.584;9.998;2023-04-24T14:19:01;13.80;99.90
15103;DHT22;7652;53.584;9.998;2023-04-24T14:22:04;13.70;99.90
15103;DHT22;7652;53.584;9.998;2023-04-24T14:25:08;13.70;99.90
15103;DHT22;7652;53.584;9.998;2023-04-24T14:28:12;13.70;99.90
15103;DHT22;7652;53.584;9.998;2023-04-24T14:31:15;13.60;99.90
15103;DHT22;7652;53.584;9.998;2023-04-24T14:34:18;13.60;99.90
15103;DHT22;7652;53.584;9.998;2023-04-24T14:37:21;13.60;99.90
15103;DHT22;7652;53.584;9.998;2023-04-24T14:40:24;13.50;99.90
15103;DHT22;7652;53.584;9.998;2023-04-24T14:43:48;13.50;99.90
15103;DHT22;7652;53.584;9.998;2023-04-24T14:46:51;13.20;99.90
15103;DHT22;7652;53.584;9.998;2023-04-24T14:49:55;13.00;99.90
15103;DHT22;7652;53.584;9.998;2023-04-24T14:52:58;12.70;99.90
15103;DHT22;7652;53.584;9.998;2023-04-24T14:56:01;12.50;99.90
15103;DHT22;7652;53.584;9.998;2023-04-24T14:59:05;12.10;99.90
15103;DHT22;7652;53.584;9.998;2023-04-24T15:02:09;12.00;99.90
15103;DHT22;7652;53.584;9.998;2023-04-24T15:05:18;12.00;99.90
15103;DHT22;7652;53.584;9.998;2023-04-24T15:08:21;11.90;99.90
15103;DHT22;7652;53.584;9.998;2023-04-24T15:11:25;11.80;99.90
15103;DHT22;7652;53.584;9.998;2023-04-24T15:14:30;11.80;99.90
15103;DHT22;7652;53.584;9.998;2023-04-24T15:17:34;11.80;99.90
15103;DHT22;7652;53.584;9.998;2023-04-24T15:20:37;11.70;99.90
15103;DHT22;7652;53.584;9.998;2023-04-24T15:23:41;11.50;99.90
15103;DHT22;7652;53.584;9.998;2023-04-24T15:26:44;11.50;99.90
15103;DHT22;7652;53.584;9.998;2023-04-24T15:29:48;11.40;99.90
15103;DHT22;7652;53.584;9.998;2023-04-24T15:32:52;11.30;99.90
15103;DHT22;7652;53.584;9.998;2023-04-24T15:35:55;11.20;99.90
15103;DHT22;7652;53.584;9.998;2023-04-24T15:38:58;11.20;99.90
15103;DHT22;7652;53.584;9.998;2023-04-24T15:42:03;11.10;99.90
15103;DHT22;7652;53.584;9.998;2023-04-24T15:45:09;11.10;99.90
15103;DHT22;7652;53.584;9.998;2023-04-24T15:48:12;11.00;99.90
15103;DHT22;7652;53.584;9.998;2023-04-24T15:51:15;11.00;99.90
15103;DHT22;7652;53.584;9.998;2023-04-24T15:54:18;11.00;99.90
15103;DHT22;7652;53.584;9.998;2023-04-24T15:57:21;11.00;99.90
15103;DHT22;7652;53.584;9.998;2023-04-24T16:00:25;10.90;99.90
15103;DHT22;7652;53.584;9.998;2023-04-24T16:03:34;10.80;99.90
15103;DHT22;7652;53.584;9.998;2023-04-24T16:06:37;10.70;99.90
15103;DHT22;7652;53.584;9.998;2023-04-24T16:09:41;10.70;99.90
15103;DHT22;7652;53.584;9.998;2023-04-24T16:12:44;10.60;99.90
15103;DHT22;7652;53.584;9.998;2023-04-24T16:15:49;10.40;99.90
15103;DHT22;7652;53.584;9.998;2023-04-24T16:18:52;10.30;99.90
15103;DHT22;7652;53.584;9.998;2023-04-24T16:21:56;10.10;99.90
15103;DHT22;7652;53.584;9.998;2023-04-24T16:24:59;10.10;99.90
15103;DHT22;7652;53.584;9.998;2023-04-24T16:28:02;10.10;99.90
15103;DHT22;7652;53.584;9.998;2023-04-24T16:31:06;10.00;99.90
15103;DHT22;7652;53.584;9.998;2023-04-24T16:34:10;9.80;99.90
15103;DHT22;7652;53.584;9.998;2023-04-24T16:37:13;9.80;99.90
15103;DHT22;7652;53.584;9.998;2023-04-24T16:40:16;9.70;99.90
15103;DHT22;7652;53.584;9.998;2023-04-24T16:43:19;9.60;99.90
15103;DHT22;7652;53.584;9.998;2023-04-24T16:46:23;9.40;99.90
15103;DHT22;7652;53.584;9.998;2023-04-24T16:49:26;9.40;99.90
15103;DHT22;7652;53.584;9.998;2023-04-24T16:52:31;9.30;99.90
15103;DHT22;7652;53.584;9.998;2023-04-24T16:55:34;9.30;99.90
15103;DHT22;7652;53.584;9.998;2023-04-24T16:58:37;9.20;99.90
15103;DHT22;7652;53.584;9.998;2023-04-24T17:01:42;9.20;99.90
15103;DHT22;7652;53.584;9.998;2023-04-24T17:04:45;9.10;99.90
15103;DHT22;7652;53.584;9.998;2023-04-24T17:07:49;9.10;99.90
15103;DHT22;7652;53.584;9.998;2023-04-24T17:10:51;9.10;99.90
15103;DHT22;7652;53.584;9.998;2023-04-24T17:13:55;9.10;99.90
15103;DHT22;7652;53.584;9.998;2023-04-24T17:17:01;9.20;99.90
15103;DHT22;7652;53.584;9.998;2023-04-24T17:20:06;9.20;99.90
15103;DHT22;7652;53.584;9.998;2023-04-24T17:23:23;9.20;99.90
15103;DHT22;7652;53.584;9.998;2023-04-24T17:26:27;9.30;99.90
15103;DHT22;7652;53.584;9.998;2023-04-24T17:29:33;9.30;99.90
15103;DHT22;7652;53.584;9.998;2023-04-24T17:32:37;9.30;99.90
15103;DHT22;7652;53.584;9.998;2023-04-24T17:35:41;9.40;99.90
15103;DHT22;7652;53.584;9.998;2023-04-24T17:38:44;9.40;99.90
15103;DHT22;7652;53.584;9.998;2023-04-24T17:41:48;9.40;99.90
15103;DHT22;7652;53.584;9.998;2023-04-24T17:44:50;9.40;99.90
15103;DHT22;7652;53.584;9.998;2023-04-24T17:47:55;9.40;99.90
15103;DHT22;7652;53.584;9.998;2023-04-24T17:50:58;9.40;99.90
15103;DHT22;7652;53.584;9.998;2023-04-24T17:54:01;9.50;99.90
15103;DHT22;7652;53.584;9.998;2023-04-24T17:57:04;9.50;99.90
15103;DHT22;7652;53.584;9.998;2023-04-24T18:00:08;9.50;99.90
15103;DHT22;7652;53.584;9.998;2023-04-24T18:03:13;9.50;99.90
15103;DHT22;7652;53.584;9.998;2023-04-24T18:06:16;9.50;99.90
15103;DHT22;7652;53.584;9.998;2023-04-24T18:09:20;9.50;99.90
15103;DHT22;7652;53.584;9.998;2023-04-24T18:12:23;9.60;99.90
15103;DHT22;7652;53.584;9.998;2023-04-24T18:15:26;9.60;99.90
15103;DHT22;7652;53.584;9.998;2023-04-24T18:18:30;9.50;99.90
15103;DHT22;7652;53.584;9.998;2023-04-24T18:21:33;9.40;99.90
15103;DHT22;7652;53.584;9.998;2023-04-24T18:24:36;9.40;99.90
15103;DHT22;7652;53.584;9.998;2023-04-24T18:27:40;9.40;99.90
15103;DHT22;7652;53.584;9.998;2023-04-24T18:30:43;9.40;99.90
15103;DHT22;7652;53.584;9.998;2023-04-24T18:33:47;9.40;99.90
15103;DHT22;7652;53.584;9.998;2023-04-24T18:36:50;9.50;99.90
15103;DHT22;7652;53.584;9.998;2023-04-24T18:39:54;9.50;99.90
15103;DHT22;7652;53.584;9.998;2023-04-24T18:42:57;9.50;99.90
15103;DHT22;7652;53.584;9.998;2023-04-24T18:46:01;9.60;99.90
15103;DHT22;7652;53.584;9.998;2023-04-24T18:49:05;9.60;99.90
15103;DHT22;7652;53.584;9.998;2023-04-24T18:52:08;9.70;99.90
15103;DHT22;7652;53.584;9.998;2023-04-24T18:55:11;9.70;99.90
15103;DHT22;7652;53.584;9.998;2023-04-24T18:58:14;9.70;99.90
15103;DHT22;7652;53.584;9.998;2023-04-24T19:01:17;9.70;99.90
15103;DHT22;7652;53.584;9.998;2023-04-24T19:04:21;9.60;99.90
15103;DHT22;7652;53.584;9.998;2023-04-24T19:07:24;9.60;99.90
15103;DHT22;7652;53.584;9.998;2023-04-24T19:10:27;9.50;99.90
15103;DHT22;7652;53.584;9.998;2023-04-24T19:13:32;9.50;99.90
15103;DHT22;7652;53.584;9.998;2023-04-24T19:16:35;9.50;99.90
15103;DHT22;7652;53.584;9.998;2023-04-24T19:19:39;9.50;99.90
15103;DHT22;7652;53.584;9.998;2023-04-24T19:22:42;9.50;99.90
15103;DHT22;7652;53.584;9.998;2023-04-24T19:25:46;9.50;99.90
15103;DHT22;7652;53.584;9.998;2023-04-24T19:28:49;9.50;99.90
15103;DHT22;7652;53.584;9.998;2023-04-24T19:31:54;9.50;99.90
15103;DHT22;7652;53.584;9.998;2023-04-24T19:35:00;9.60;99.90
15103;DHT22;7652;53.584;9.998;2023-04-24T19:38:04;9.60;99.90
15103;DHT22;7652;53.584;9.998;2023-04-24T19:41:09;9.60;99.90
15103;DHT22;7652;53.584;9.998;2023-04-24T19:44:13;9.60;99.90
15103;DHT22;7652;53.584;9.998;2023-04-24T19:47:18;9.70;99.90